sensor_id;sensor_type;location;lat;lon;timestamp;temperature;humidity
15184;DHT22;7693;49.266;7.104;2023-08-24T05:06:45;20.00;99.90
15184;DHT22;7693;49.266;7.104;2023-08-24T05:09:11;20.00;99.90
15184;DHT22;7693;49.266;7.104;2023-08-24T05:11:36;20.10;99.90
15184;DHT22;7693;49.266;7.104;2023-08-24T05:14:02;20.10;99.90
15184;DHT22;7693;49.266;7.104;2023-08-24T05:16:28;20.20;99.90
15184;DHT22;7693;49.266;7.104;2023-08-24T05:18:53;20.20;99.90
15184;DHT22;7693;49.266;7.104;2023-08-24T05:21:19;20.20;99.90
15184;DHT22;7693;49.266;7.104;2023-08-24T05:23:44;20.30;99.90
15184;DHT22;7693;49.266;7.104;2023-08-24T05:26:10;20.40;99.90
15184;DHT22;7693;49.266;7.104;2023-08-24T05:28:36;20.40;99.90
15184;DHT22;7693;49.266;7.104;2023-08-24T05:31:01;20.40;99.90
15184;DHT22;7693;49.266;7.104;2023-08-24T05:33:27;20.40;99.90
15184;DHT22;7693;49.266;7.104;2023-08-24T05:35:53;20.50;99.90
15184;DHT22;7693;49.266;7.104;2023-08-24T05:38:19;20.50;99.90
15184;DHT22;7693;49.266;7.104;2023-08-24T05:40:48;20.50;99.90
15184;DHT22;7693;49.266;7.104;2023-08-24T05:43:14;20.50;99.90
15184;DHT22;7693;49.266;7.104;2023-08-24T05:45:40;20.50;99.90
15184;DHT22;7693;49.266;7.104;2023-08-24T05:48:06;20.50;99.90
15184;DHT22;7693;49.266;7.104;2023-08-24T05:50:33;20.50;99.90
15184;DHT22;7693;49.266;7.104;2023-08-24T05:52:58;20.50;99.90
15184;DHT22;7693;49.266;7.104;2023-08-24T05:55:24;20.50;99.90
15184;DHT22;7693;49.266;7.104;2023-08-24T05:57:49;20.60;99.90
15184;DHT22;7693;49.266;7.104;2023-08-24T06:00:15;20.60;99.90
15184;DHT22;7693;49.266;7.104;2023-08-24T06:02:41;20.70;99.90
15184;DHT22;7693;49.266;7.104;2023-08-24T06:05:07;20.80;99.90
15184;DHT22;7693;49.266;7.104;2023-08-24T06:07:33;20.90;99.90
15184;DHT22;7693;49.266;7.104;2023-08-24T06:09:59;21.00;99.90
15184;DHT22;7693;49.266;7.104;2023-08-24T06:12:25;21.00;99.90
15184;DHT22;7693;49.266;7.104;2023-08-24T06:14:50;21.10;99.90
15184;DHT22;7693;49.266;7.104;2023-08-24T06:17:16;21.20;99.90
15184;DHT22;7693;49.266;7.104;2023-08-24T06:19:42;21.20;99.90
15184;DHT22;7693;49.266;7.104;2023-08-24T06:22:08;21.20;99.90
15184;DHT22;7693;49.266;7.104;2023-08-24T06:24:33;21.20;99.90
15184;DHT22;7693;49.266;7.104;2023-08-24T06:26:59;21.20;99.90
15184;DHT22;7693;49.266;7.104;2023-08-24T06:29:24;21.30;99.90
15184;DHT22;7693;49.266;7.104;2023-08-24T06:31:50;21.30;99.90
15184;DHT22;7693;49.266;7.104;2023-08-24T06:34:15;21.40;99.90
15184;DHT22;7693;49.266;7.104;2023-08-24T06:36:41;21.40;99.90
15184;DHT22;7693;49.266;7.104;2023-08-24T06:39:07;21.50;99.90
15184;DHT22;7693;49.266;7.104;2023-08-24T06:41:36;21.50;99.90
15184;DHT22;7693;49.266;7.104;2023-08-24T06:44:02;21.60;99.90
15184;DHT22;7693;49.266;7.104;2023-08-24T06:46:28;21.60;99.90
15184;DHT22;7693;49.266;7.104;2023-08-24T06:48:54;21.70;99.90
15184;DHT22;7693;49.266;7.104;2023-08-24T06:51:19;21.80;99.90
15184;DHT22;7693;49.266;7.104;2023-08-24T06:53:45;21.90;99.90
15184;DHT22;7693;49.266;7.104;2023-08-24T06:56:13;22.00;99.90
15184;DHT22;7693;49.266;7.104;2023-08-24T06:58:39;22.10;99.90
15184;DHT22;7693;49.266;7.104;2023-08-24T07:01:05;22.20;99.90
15184;DHT22;7693;49.266;7.104;2023-08-24T07:03:31;22.30;99.90
15184;DHT22;7693;49.266;7.104;2023-08-24T07:05:58;22.40;99.90
15184;DHT22;7693;49.266;7.104;2023-08-24T07:08:24;22.50;99.90
15184;DHT22;7693;49.266;7.104;2023-08-24T07:10:50;22.50;99.90
15184;DHT22;7693;49.266;7.104;2023-08-24T07:13:15;22.50;99.90
15184;DHT22;7693;49.266;7.104;2023-08-24T07:15:42;22.50;99.90
15184;DHT22;7693;49.266;7.104;2023-08-24T07:18:08;22.60;99.90
15184;DHT22;7693;49.266;7.104;2023-08-24T07:20:34;22.70;99.90
15184;DHT22;7693;49.266;7.104;2023-08-24T07:23:00;22.90;99.90
15184;DHT22;7693;49.266;7.104;2023-08-24T07:25:26;22.90;99.90
15184;DHT22;7693;49.266;7.104;2023-08-24T07:27:53;23.10;99.90
15184;DHT22;7693;49.266;7.104;2023-08-24T07:30:24;23.20;99.90
15184;DHT22;7693;49.266;7.104;2023-08-24T07:32:50;23.20;99.90
15184;DHT22;7693;49.266;7.104;2023-08-24T07:35:16;23.30;99.90
15184;DHT22;7693;49.266;7.104;2023-08-24T07:37:41;23.30;99.90
15184;DHT22;7693;49.266;7.104;2023-08-24T07:40:07;23.40;99.90
15184;DHT22;7693;49.266;7.104;2023-08-24T07:42:43;23.50;99.90
15184;DHT22;7693;49.266;7.104;2023-08-24T07:45:09;23.60;99.90
15184;DHT22;7693;49.266;7.104;2023-08-24T07:47:35;23.60;99.90
15184;DHT22;7693;49.266;7.104;2023-08-24T07:50:00;23.60;99.90
15184;DHT22;7693;49.266;7.104;2023-08-24T07:52:26;23.60;99.90
15184;DHT22;7693;49.266;7.104;2023-08-24T07:54:54;23.70;99.90
15184;DHT22;7693;49.266;7.104;2023-08-24T07:57:20;23.70;99.90
15184;DHT22;7693;49.266;7.104;2023-08-24T07:59:46;23.70;99.90
15184;DHT22;7693;49.266;7.104;2023-08-24T08:02:12;23.80;99.90
15184;DHT22;7693;49.266;7.104;2023-08-24T08:04:37;23.80;99.90
15184;DHT22;7693;49.266;7.104;2023-08-24T08:07:03;23.80;99.90
15184;DHT22;7693;49.266;7.104;2023-08-24T08:09:28;23.90;99.90
15184;DHT22;7693;49.266;7.104;2023-08-24T08:11:54;24.00;99.90
15184;DHT22;7693;49.266;7.104;2023-08-24T08:14:20;24.10;99.90
15184;DHT22;7693;49.266;7.104;2023-08-24T08:16:45;24.20;99.90
15184;DHT22;7693;49.266;7.104;2023-08-24T08:19:11;24.20;99.90
15184;DHT22;7693;49.266;7.104;2023-08-24T08:21:37;24.30;99.90
15184;DHT22;7693;49.266;7.104;2023-08-24T08:24:02;24.40;99.90
15184;DHT22;7693;49.266;7.104;2023-08-24T08:26:28;24.40;99.90
15184;DHT22;7693;49.266;7.104;2023-08-24T08:28:54;24.50;99.90
15184;DHT22;7693;49.266;7.104;2023-08-24T08:31:20;24.60;99.90
15184;DHT22;7693;49.266;7.104;2023-08-24T08:33:46;24.60;99.90
15184;DHT22;7693;49.266;7.104;2023-08-24T08:36:11;24.70;99.90
15184;DHT22;7693;49.266;7.104;2023-08-24T08:38:37;24.90;99.90
15184;DHT22;7693;49.266;7.104;2023-08-24T08:41:04;24.90;99.90
15184;DHT22;7693;49.266;7.104;2023-08-24T08:43:29;25.00;99.90
15184;DHT22;7693;49.266;7.104;2023-08-24T08:45:56;25.10;99.90
15184;DHT22;7693;49.266;7.104;2023-08-24T08:48:24;25.30;99.90
15184;DHT22;7693;49.266;7.104;2023-08-24T08:50:51;25.30;99.90
15184;DHT22;7693;49.266;7.104;2023-08-24T08:53:21;25.50;99.90
15184;DHT22;7693;49.266;7.104;2023-08-24T08:55:49;25.60;99.90
15184;DHT22;7693;49.266;7.104;2023-08-24T08:58:15;25.60;99.90
15184;DHT22;7693;49.266;7.104;2023-08-24T09:00:41;25.70;99.90
15184;DHT22;7693;49.266;7.104;2023-08-24T09:03:08;26.00;99.90
15184;DHT22;7693;49.266;7.104;2023-08-24T09:05:36;26.10;99.90
15184;DHT22;7693;49.266;7.104;2023-08-24T09:08:04;26.10;99.90
15184;DHT22;7693;49.266;7.104;2023-08-24T09:10:30;26.20;99.90
15184;DHT22;7693;49.266;7.104;2023-08-24T09:12:56;26.30;99.90
15184;DHT22;7693;49.266;7.104;2023-08-24T09:15:26;26.40;99.90
15184;DHT22;7693;49.266;7.104;2023-08-24T09:17:52;26.50;99.90
15184;DHT22;7693;49.266;7.104;2023-08-24T09:20:19;26.60;99.90
15184;DHT22;7693;49.266;7.104;2023-08-24T09:22:44;26.60;99.90
15184;DHT22;7693;49.266;7.104;2023-08-24T09:25:10;26.70;99.90
15184;DHT22;7693;49.266;7.104;2023-08-24T09:27:36;26.80;99.90
15184;DHT22;7693;49.266;7.104;2023-08-24T09:30:02;26.80;99.90
15184;DHT22;7693;49.266;7.104;2023-08-24T09:32:28;26.80;99.90
15184;DHT22;7693;49.266;7.104;2023-08-24T09:34:54;26.70;99.90
15184;DHT22;7693;49.266;7.104;2023-08-24T09:37:20;26.70;99.90
15184;DHT22;7693;49.266;7.104;2023-08-24T09:39:46;26.80;99.90
15184;DHT22;7693;49.266;7.104;2023-08-24T09:42:12;26.90;99.90
15184;DHT22;7693;49.266;7.104;2023-08-24T09:44:43;27.00;99.90
15184;DHT22;7693;49.266;7.104;2023-08-24T09:47:10;27.10;99.90
15184;DHT22;7693;49.266;7.104;2023-08-24T09:49:38;27.10;99.90
15184;DHT22;7693;49.266;7.104;2023-08-24T09:52:08;27.20;99.90
15184;DHT22;7693;49.266;7.104;2023-08-24T09:54:37;27.20;99.90
15184;DHT22;7693;49.266;7.104;2023-08-24T09:57:02;27.30;99.90
15184;DHT22;7693;49.266;7.104;2023-08-24T09:59:31;27.30;99.90
15184;DHT22;7693;49.266;7.104;2023-08-24T13:10:23;29.20;94.90
15184;DHT22;7693;49.266;7.104;2023-08-24T13:12:50;29.10;95.30
15184;DHT22;7693;49.266;7.104;2023-08-24T13:15:16;28.90;95.30
15184;DHT22;7693;49.266;7.104;2023-08-24T13:17:41;28.80;95.60
15184;DHT22;7693;49.266;7.104;2023-08-24T13:20:07;28.70;96.40
15184;DHT22;7693;49.266;7.104;2023-08-24T13:22:33;28.60;96.10
15184;DHT22;7693;49.266;7.104;2023-08-24T13:24:59;28.40;96.20
15184;DHT22;7693;49.266;7.104;2023-08-24T13:27:24;28.30;96.60
15184;DHT22;7693;49.266;7.104;2023-08-24T13:29:50;28.20;96.60
15184;DHT22;7693;49.266;7.104;2023-08-24T13:32:16;28.10;97.00
15184;DHT22;7693;49.266;7.104;2023-08-24T13:34:41;28.00;96.80
15184;DHT22;7693;49.266;7.104;2023-08-24T13:37:07;28.00;96.90
15184;DHT22;7693;49.266;7.104;2023-08-24T13:39:32;27.90;97.20
15184;DHT22;7693;49.266;7.104;2023-08-24T13:41:58;27.70;97.30
15184;DHT22;7693;49.266;7.104;2023-08-24T13:44:24;27.60;97.40
15184;DHT22;7693;49.266;7.104;2023-08-24T13:46:50;27.40;97.60
15184;DHT22;7693;49.266;7.104;2023-08-24T13:49:19;27.30;97.70
15184;DHT22;7693;49.266;7.104;2023-08-24T13:51:45;27.30;97.80
15184;DHT22;7693;49.266;7.104;2023-08-24T13:54:19;27.20;97.50
15184;DHT22;7693;49.266;7.104;2023-08-24T13:56:47;27.00;97.40
15184;DHT22;7693;49.266;7.104;2023-08-24T13:59:13;26.90;97.40
15184;DHT22;7693;49.266;7.104;2023-08-24T14:01:40;26.80;97.60
15184;DHT22;7693;49.266;7.104;2023-08-24T14:04:06;26.70;97.30
15184;DHT22;7693;49.266;7.104;2023-08-24T14:06:33;26.50;97.50
15184;DHT22;7693;49.266;7.104;2023-08-24T14:09:04;26.40;97.60
15184;DHT22;7693;49.266;7.104;2023-08-24T14:11:30;26.30;97.80
15184;DHT22;7693;49.266;7.104;2023-08-24T14:13:57;26.30;98.10
15184;DHT22;7693;49.266;7.104;2023-08-24T14:16:23;26.40;98.20
15184;DHT22;7693;49.266;7.104;2023-08-24T14:18:49;26.50;98.40
15184;DHT22;7693;49.266;7.104;2023-08-24T14:21:15;26.50;98.50
15184;DHT22;7693;49.266;7.104;2023-08-24T14:23:41;26.60;98.50
15184;DHT22;7693;49.266;7.104;2023-08-24T14:26:07;26.50;98.40
15184;DHT22;7693;49.266;7.104;2023-08-24T14:28:54;26.60;98.60
15184;DHT22;7693;49.266;7.104;2023-08-24T14:31:21;26.60;98.60
15184;DHT22;7693;49.266;7.104;2023-08-24T14:33:47;26.60;98.90
15184;DHT22;7693;49.266;7.104;2023-08-24T14:36:13;26.60;98.90
15184;DHT22;7693;49.266;7.104;2023-08-24T14:38:39;26.70;98.90
15184;DHT22;7693;49.266;7.104;2023-08-24T14:41:09;26.70;99.00
15184;DHT22;7693;49.266;7.104;2023-08-24T14:43:35;26.60;98.90
15184;DHT22;7693;49.266;7.104;2023-08-24T14:46:01;26.60;99.10
15184;DHT22;7693;49.266;7.104;2023-08-24T14:48:27;26.60;99.30
15184;DHT22;7693;49.266;7.104;2023-08-24T14:50:52;26.50;99.40
15184;DHT22;7693;49.266;7.104;2023-08-24T14:53:18;26.50;99.30
15184;DHT22;7693;49.266;7.104;2023-08-24T14:55:43;26.50;99.80
15184;DHT22;7693;49.266;7.104;2023-08-24T14:58:09;26.50;99.40
15184;DHT22;7693;49.266;7.104;2023-08-24T15:00:35;26.50;99.50
15184;DHT22;7693;49.266;7.104;2023-08-24T15:03:01;26.50;99.40
15184;DHT22;7693;49.266;7.104;2023-08-24T15:05:27;26.60;99.80
15184;DHT22;7693;49.266;7.104;2023-08-24T15:07:53;26.70;99.80
15184;DHT22;7693;49.266;7.104;2023-08-24T15:10:19;26.70;99.70
15184;DHT22;7693;49.266;7.104;2023-08-24T15:12:47;26.70;99.70
15184;DHT22;7693;49.266;7.104;2023-08-24T15:15:13;26.50;99.40
15184;DHT22;7693;49.266;7.104;2023-08-24T15:17:43;26.30;99.30
15184;DHT22;7693;49.266;7.104;2023-08-24T15:20:10;26.10;99.50
15184;DHT22;7693;49.266;7.104;2023-08-24T15:22:36;26.00;99.60
15184;DHT22;7693;49.266;7.104;2023-08-24T15:25:01;25.90;99.90
15184;DHT22;7693;49.266;7.104;2023-08-24T15:27:28;25.70;99.90
15184;DHT22;7693;49.266;7.104;2023-08-24T15:29:54;25.60;99.90
15184;DHT22;7693;49.266;7.104;2023-08-24T15:32:20;25.50;99.90
15184;DHT22;7693;49.266;7.104;2023-08-24T15:34:46;25.40;99.90
15184;DHT22;7693;49.266;7.104;2023-08-24T15:37:12;25.30;99.90
15184;DHT22;7693;49.266;7.104;2023-08-24T15:39:38;25.20;99.90
15184;DHT22;7693;49.266;7.104;2023-08-24T15:42:05;25.10;99.90
15184;DHT22;7693;49.266;7.104;2023-08-24T15:44:31;25.10;99.90
15184;DHT22;7693;49.266;7.104;2023-08-24T15:46:57;25.00;99.90
15184;DHT22;7693;49.266;7.104;2023-08-24T15:49:23;24.90;99.90
15184;DHT22;7693;49.266;7.104;2023-08-24T15:51:50;24.90;99.90
15184;DHT22;7693;49.266;7.104;2023-08-24T15:54:15;24.80;99.90
15184;DHT22;7693;49.266;7.104;2023-08-24T15:56:41;24.70;99.90
15184;DHT22;7693;49.266;7.104;2023-08-24T15:59:10;24.70;99.90
15184;DHT22;7693;49.266;7.104;2023-08-24T16:01:36;24.60;99.90
15184;DHT22;7693;49.266;7.104;2023-08-24T16:04:02;24.60;99.90
15184;DHT22;7693;49.266;7.104;2023-08-24T16:06:27;24.60;99.90
15184;DHT22;7693;49.266;7.104;2023-08-24T16:08:53;24.60;99.90
15184;DHT22;7693;49.266;7.104;2023-08-24T16:11:21;24.50;99.90
15184;DHT22;7693;49.266;7.104;2023-08-24T16:13:46;24.50;99.90
15184;DHT22;7693;49.266;7.104;2023-08-24T16:16:12;24.40;99.90
15184;DHT22;7693;49.266;7.104;2023-08-24T16:18:37;24.30;99.90
15184;DHT22;7693;49.266;7.104;2023-08-24T16:21:03;24.20;99.90
15184;DHT22;7693;49.266;7.104;2023-08-24T16:23:29;23.90;99.90
15184;DHT22;7693;49.266;7.104;2023-08-24T16:25:55;23.70;99.90
15184;DHT22;7693;49.266;7.104;2023-08-24T16:28:21;23.50;99.90
15184;DHT22;7693;49.266;7.104;2023-08-24T16:30:47;23.40;99.90
15184;DHT22;7693;49.266;7.104;2023-08-24T16:33:14;23.30;99.90
15184;DHT22;7693;49.266;7.104;2023-08-24T16:35:40;23.20;99.90
15184;DHT22;7693;49.266;7.104;2023-08-24T16:38:05;23.10;99.90
15184;DHT22;7693;49.266;7.104;2023-08-24T16:40:35;23.10;99.90
15184;DHT22;7693;49.266;7.104;2023-08-24T16:43:01;23.00;99.90
15184;DHT22;7693;49.266;7.104;2023-08-24T16:45:27;22.90;99.90
15184;DHT22;7693;49.266;7.104;2023-08-24T16:47:52;22.80;99.90
15184;DHT22;7693;49.266;7.104;2023-08-24T16:50:19;22.70;99.90
15184;DHT22;7693;49.266;7.104;2023-08-24T16:52:46;22.60;99.90
15184;DHT22;7693;49.266;7.104;2023-08-24T16:55:12;22.50;99.90
15184;DHT22;7693;49.266;7.104;2023-08-24T16:57:37;22.40;99.90
15184;DHT22;7693;49.266;7.104;2023-08-24T17:00:04;22.40;99.90
15184;DHT22;7693;49.266;7.104;2023-08-24T17:02:30;22.30;99.90
15184;DHT22;7693;49.266;7.104;2023-08-24T17:04:56;22.30;99.90
15184;DHT22;7693;49.266;7.104;2023-08-24T17:07:22;22.20;99.90
15184;DHT22;7693;49.266;7.104;2023-08-24T17:09:49;22.20;99.90
15184;DHT22;7693;49.266;7.104;2023-08-24T17:12:14;22.10;99.90
15184;DHT22;7693;49.266;7.104;2023-08-24T17:14:40;22.10;99.90
15184;DHT22;7693;49.266;7.104;2023-08-24T17:17:06;22.00;99.90
15184;DHT22;7693;49.266;7.104;2023-08-24T17:19:32;22.00;99.90
15184;DHT22;7693;49.266;7.104;2023-08-24T17:21:57;21.90;99.90
15184;DHT22;7693;49.266;7.104;2023-08-24T17:24:23;21.90;99.90
15184;DHT22;7693;49.266;7.104;2023-08-24T17:26:49;21.90;99.90
15184;DHT22;7693;49.266;7.104;2023-08-24T17:29:15;21.90;99.90
15184;DHT22;7693;49.266;7.104;2023-08-24T17:31:41;21.80;99.90
15184;DHT22;7693;49.266;7.104;2023-08-24T17:34:07;21.80;99.90
15184;DHT22;7693;49.266;7.104;2023-08-24T17:36:32;21.80;99.90
15184;DHT22;7693;49.266;7.104;2023-08-24T17:38:58;21.80;99.90
15184;DHT22;7693;49.266;7.104;2023-08-24T17:41:24;21.70;99.90
15184;DHT22;7693;49.266;7.104;2023-08-24T17:43:49;21.70;99.90
15184;DHT22;7693;49.266;7.104;2023-08-24T17:46:15;21.70;99.90
15184;DHT22;7693;49.266;7.104;2023-08-24T17:48:41;21.60;99.90
15184;DHT22;7693;49.266;7.104;2023-08-24T17:51:06;21.50;99.90
15184;DHT22;7693;49.266;7.104;2023-08-24T17:53:32;21.50;99.90
15184;DHT22;7693;49.266;7.104;2023-08-24T17:55:59;21.40;99.90
15184;DHT22;7693;49.266;7.104;2023-08-24T17:58:25;21.40;99.90
15184;DHT22;7693;49.266;7.104;2023-08-24T18:00:51;21.50;99.90
15184;DHT22;7693;49.266;7.104;2023-08-24T18:03:18;21.50;99.90
15184;DHT22;7693;49.266;7.104;2023-08-24T18:05:44;21.40;99.90
15184;DHT22;7693;49.266;7.104;2023-08-24T18:08:13;21.40;99.90
15184;DHT22;7693;49.266;7.104;2023-08-24T18:10:39;21.40;99.90
15184;DHT22;7693;49.266;7.104;2023-08-24T18:13:05;21.40;99.90
15184;DHT22;7693;49.266;7.104;2023-08-24T18:15:34;21.40;99.90
15184;DHT22;7693;49.266;7.104;2023-08-24T18:18:00;21.40;99.90
15184;DHT22;7693;49.266;7.104;2023-08-24T18:20:26;21.40;99.90
15184;DHT22;7693;49.266;7.104;2023-08-24T18:22:52;21.40;99.90
15184;DHT22;7693;49.266;7.104;2023-08-24T18:25:18;21.40;99.90
15184;DHT22;7693;49.266;7.104;2023-08-24T18:27:44;21.30;99.90
15184;DHT22;7693;49.266;7.104;2023-08-24T18:30:10;21.30;99.90
15184;DHT22;7693;49.266;7.104;2023-08-24T18:32:35;21.30;99.90
15184;DHT22;7693;49.266;7.104;2023-08-24T18:35:01;21.20;99.90
15184;DHT22;7693;49.266;7.104;2023-08-24T18:37:27;21.20;99.90
15184;DHT22;7693;49.266;7.104;2023-08-24T18:39:52;21.20;99.90
15184;DHT22;7693;49.266;7.104;2023-08-24T18:42:18;21.20;99.90
15184;DHT22;7693;49.266;7.104;2023-08-24T18:44:45;21.20;99.90
15184;DHT22;7693;49.266;7.104;2023-08-24T18:47:11;21.20;99.90
15184;DHT22;7693;49.266;7.104;2023-08-24T18:49:37;21.20;99.90
15184;DHT22;7693;49.266;7.104;2023-08-24T18:52:03;21.20;99.90
15184;DHT22;7693;49.266;7.104;2023-08-24T18:54:28;21.20;99.90
15184;DHT22;7693;49.266;7.104;2023-08-24T18:56:55;21.10;99.90
15184;DHT22;7693;49.266;7.104;2023-08-24T18:59:21;21.10;99.90
15184;DHT22;7693;49.266;7.104;2023-08-24T19:01:48;21.10;99.90
15184;DHT22;7693;49.266;7.104;2023-08-24T19:04:13;21.00;99.90
15184;DHT22;7693;49.266;7.104;2023-08-24T19:06:39;21.00;99.90
15184;DHT22;7693;49.266;7.104;2023-08-24T19:09:05;20.90;99.90
15184;DHT22;7693;49.266;7.104;2023-08-24T19:11:30;20.90;99.90
15184;DHT22;7693;49.266;7.104;2023-08-24T19:13:56;20.90;99.90
15184;DHT22;7693;49.266;7.104;2023-08-24T19:16:22;20.90;99.90
15184;DHT22;7693;49.266;7.104;2023-08-24T19:18:48;20.90;99.90
15184;DHT22;7693;49.266;7.104;2023-08-24T19:21:13;20.90;99.90
15184;DHT22;7693;49.266;7.104;2023-08-24T19:23:39;20.80;99.90
15184;DHT22;7693;49.266;7.104;2023-08-24T19:26:05;20.80;99.90
15184;DHT22;7693;49.266;7.104;2023-08-24T19:28:31;20.80;99.90
15184;DHT22;7693;49.266;7.104;2023-08-24T19:30:57;20.80;99.90
15184;DHT22;7693;49.266;7.104;2023-08-24T19:33:23;20.80;99.90
15184;DHT22;7693;49.266;7.104;2023-08-24T19:35:49;20.80;99.90
15184;DHT22;7693;49.266;7.104;2023-08-24T19:38:14;20.80;99.90
15184;DHT22;7693;49.266;7.104;2023-08-24T19:40:40;20.80;99.90
15184;DHT22;7693;49.266;7.104;2023-08-24T19:43:06;20.80;99.90
15184;DHT22;7693;49.266;7.104;2023-08-24T19:45:32;20.80;99.90
15184;DHT22;7693;49.266;7.104;2023-08-24T19:48:00;20.90;99.90
15184;DHT22;7693;49.266;7.104;2023-08-24T19:50:29;20.90;99.90
15184;DHT22;7693;49.266;7.104;2023-08-24T19:52:55;20.90;99.90
15184;DHT22;7693;49.266;7.104;2023-08-24T19:55:21;20.80;99.90
15184;DHT22;7693;49.266;7.104;2023-08-24T19:57:49;20.80;99.90
15184;DHT22;7693;49.266;7.104;2023-08-24T20:00:16;20.70;99.90
15184;DHT22;7693;49.266;7.104;2023-08-24T20:02:42;20.70;99.90
15184;DHT22;7693;49.266;7.104;2023-08-24T20:05:08;20.70;99.90
15184;DHT22;7693;49.266;7.104;2023-08-24T20:07:38;20.70;99.90
15184;DHT22;7693;49.266;7.104;2023-08-24T20:10:06;20.60;99.90
15184;DHT22;7693;49.266;7.104;2023-08-24T20:12:33;20.60;99.90
15184;DHT22;7693;49.266;7.104;2023-08-24T20:14:59;20.60;99.90
15184;DHT22;7693;49.266;7.104;2023-08-24T20:17:28;20.60;99.90
15184;DHT22;7693;49.266;7.104;2023-08-24T20:19:55;20.60;99.90
15184;DHT22;7693;49.266;7.104;2023-08-24T20:22:26;20.60;99.90
15184;DHT22;7693;49.266;7.104;2023-08-24T20:24:52;20.60;99.90
15184;DHT22;7693;49.266;7.104;2023-08-24T20:27:17;20.50;99.90
15184;DHT22;7693;49.266;7.104;2023-08-24T20:29:43;20.50;99.90
15184;DHT22;7693;49.266;7.104;2023-08-24T20:32:08;20.50;99.90
15184;DHT22;7693;49.266;7.104;2023-08-24T20:34:34;20.50;99.90
15184;DHT22;7693;49.266;7.104;2023-08-24T20:37:00;20.50;99.90
15184;DHT22;7693;49.266;7.104;2023-08-24T20:39:25;20.50;99.90
15184;DHT22;7693;49.266;7.104;2023-08-24T20:41:51;20.50;99.90
15184;DHT22;7693;49.266;7.104;2023-08-24T20:44:18;20.50;99.90
15184;DHT22;7693;49.266;7.104;2023-08-24T20:46:44;20.40;99.90
15184;DHT22;7693;49.266;7.104;2023-08-24T20:49:10;20.40;99.90
15184;DHT22;7693;49.266;7.104;2023-08-24T20:51:36;20.50;99.90
15184;DHT22;7693;49.266;7.104;2023-08-24T20:54:02;20.50;99.90
15184;DHT22;7693;49.266;7.104;2023-08-24T20:56:29;20.50;99.90
15184;DHT22;7693;49.266;7.104;2023-08-24T20:58:57;20.40;99.90
15184;DHT22;7693;49.266;7.104;2023-08-24T21:01:23;20.40;99.90
15184;DHT22;7693;49.266;7.104;2023-08-24T21:03:49;20.40;99.90
15184;DHT22;7693;49.266;7.104;2023-08-24T21:06:15;20.40;99.90
15184;DHT22;7693;49.266;7.104;2023-08-24T21:08:40;20.40;99.90
15184;DHT22;7693;49.266;7.104;2023-08-24T21:11:06;20.40;99.90
15184;DHT22;7693;49.266;7.104;2023-08-24T21:13:32;20.30;99.90
15184;DHT22;7693;49.266;7.104;2023-08-24T21:15:58;20.30;99.90
15184;DHT22;7693;49.266;7.104;2023-08-24T21:18:24;20.30;99.90
15184;DHT22;7693;49.266;7.104;2023-08-24T21:20:56;20.30;99.90
15184;DHT22;7693;49.266;7.104;2023-08-24T21:23:22;20.30;99.90
15184;DHT22;7693;49.266;7.104;2023-08-24T21:25:48;20.20;99.90
15184;DHT22;7693;49.266;7.104;2023-08-24T21:28:13;20.20;99.90
15184;DHT22;7693;49.266;7.104;2023-08-24T21:30:39;20.20;99.90
15184;DHT22;7693;49.266;7.104;2023-08-24T21:33:04;20.10;99.90
15184;DHT22;7693;49.266;7.104;2023-08-24T21:35:30;20.10;99.90
15184;DHT22;7693;49.266;7.104;2023-08-24T21:37:55;20.10;99.90
15184;DHT22;7693;49.266;7.104;2023-08-24T21:40:21;20.10;99.90
15184;DHT22;7693;49.266;7.104;2023-08-24T21:42:47;20.10;99.90
